sensor_id;sensor_type;location;lat;lon;timestamp;P1;durP1;ratioP1;P2;durP2;ratioP2
5869;SDS011;2961;47.702;9.410;2023-09-08T00:01:00;8.07;;;6.90;;
5869;SDS011;2961;47.702;9.410;2023-09-08T00:03:27;12.37;;;7.37;;
5869;SDS011;2961;47.702;9.410;2023-09-08T00:05:54;7.00;;;6.40;;
5869;SDS011;2961;47.702;9.410;2023-09-08T00:08:22;11.73;;;7.33;;
5869;SDS011;2961;47.702;9.410;2023-09-08T00:10:50;7.53;;;6.77;;
5869;SDS011;2961;47.702;9.410;2023-09-08T00:13:16;8.20;;;7.10;;
5869;SDS011;2961;47.702;9.410;2023-09-08T00:15:43;7.43;;;6.77;;
5869;SDS011;2961;47.702;9.410;2023-09-08T00:18:10;6.60;;;6.07;;
5869;SDS011;2961;47.702;9.410;2023-09-08T00:20:37;7.60;;;6.90;;
5869;SDS011;2961;47.702;9.410;2023-09-08T00:23:03;13.67;;;6.67;;
5869;SDS011;2961;47.702;9.410;2023-09-08T00:25:31;8.90;;;7.03;;
5869;SDS011;2961;47.702;9.410;2023-09-08T00:27:59;6.30;;;5.80;;
5869;SDS011;2961;47.702;9.410;2023-09-08T00:30:26;8.33;;;7.27;;
5869;SDS011;2961;47.702;9.410;2023-09-08T00:32:53;8.07;;;7.10;;
5869;SDS011;2961;47.702;9.410;2023-09-08T00:35:20;7.77;;;7.17;;
5869;SDS011;2961;47.702;9.410;2023-09-08T00:37:46;8.33;;;7.63;;
5869;SDS011;2961;47.702;9.410;2023-09-08T00:40:13;8.43;;;7.63;;
5869;SDS011;2961;47.702;9.410;2023-09-08T00:42:41;7.70;;;6.00;;
5869;SDS011;2961;47.702;9.410;2023-09-08T00:45:08;7.17;;;6.27;;
5869;SDS011;2961;47.702;9.410;2023-09-08T00:47:36;7.20;;;6.50;;
5869;SDS011;2961;47.702;9.410;2023-09-08T00:50:03;9.17;;;7.63;;
5869;SDS011;2961;47.702;9.410;2023-09-08T00:52:31;6.93;;;6.33;;
5869;SDS011;2961;47.702;9.410;2023-09-08T00:54:59;7.30;;;6.70;;
5869;SDS011;2961;47.702;9.410;2023-09-08T00:57:26;12.07;;;6.80;;
5869;SDS011;2961;47.702;9.410;2023-09-08T00:59:54;7.50;;;6.40;;
5869;SDS011;2961;47.702;9.410;2023-09-08T01:02:21;6.90;;;6.30;;
5869;SDS011;2961;47.702;9.410;2023-09-08T01:04:48;8.50;;;6.80;;
5869;SDS011;2961;47.702;9.410;2023-09-08T01:07:16;6.47;;;5.77;;
5869;SDS011;2961;47.702;9.410;2023-09-08T01:09:45;7.10;;;6.40;;
5869;SDS011;2961;47.702;9.410;2023-09-08T01:12:13;8.00;;;7.20;;
5869;SDS011;2961;47.702;9.410;2023-09-08T01:14:41;6.93;;;6.30;;
5869;SDS011;2961;47.702;9.410;2023-09-08T01:17:09;7.83;;;7.03;;
5869;SDS011;2961;47.702;9.410;2023-09-08T01:19:37;7.87;;;7.07;;
5869;SDS011;2961;47.702;9.410;2023-09-08T01:25:19;9.43;;;8.43;;
5869;SDS011;2961;47.702;9.410;2023-09-08T01:27:48;8.23;;;6.80;;
5869;SDS011;2961;47.702;9.410;2023-09-08T01:30:16;7.30;;;6.63;;
5869;SDS011;2961;47.702;9.410;2023-09-08T01:32:44;8.13;;;7.27;;
5869;SDS011;2961;47.702;9.410;2023-09-08T01:35:12;9.07;;;7.20;;
5869;SDS011;2961;47.702;9.410;2023-09-08T01:37:40;7.63;;;6.83;;
5869;SDS011;2961;47.702;9.410;2023-09-08T01:40:08;8.37;;;6.87;;
5869;SDS011;2961;47.702;9.410;2023-09-08T01:42:37;8.50;;;6.77;;
5869;SDS011;2961;47.702;9.410;2023-09-08T01:45:04;7.27;;;6.67;;
5869;SDS011;2961;47.702;9.410;2023-09-08T01:47:32;8.70;;;7.80;;
5869;SDS011;2961;47.702;9.410;2023-09-08T01:49:59;8.47;;;7.57;;
5869;SDS011;2961;47.702;9.410;2023-09-08T01:52:26;7.03;;;6.53;;
5869;SDS011;2961;47.702;9.410;2023-09-08T01:54:53;8.17;;;6.70;;
5869;SDS011;2961;47.702;9.410;2023-09-08T01:57:19;7.23;;;6.63;;
5869;SDS011;2961;47.702;9.410;2023-09-08T01:59:47;7.83;;;7.10;;
5869;SDS011;2961;47.702;9.410;2023-09-08T02:02:14;7.37;;;6.67;;
5869;SDS011;2961;47.702;9.410;2023-09-08T02:04:41;7.73;;;6.93;;
5869;SDS011;2961;47.702;9.410;2023-09-08T02:07:08;9.67;;;6.73;;
5869;SDS011;2961;47.702;9.410;2023-09-08T02:09:35;11.50;;;8.57;;
5869;SDS011;2961;47.702;9.410;2023-09-08T02:12:03;13.50;;;7.17;;
5869;SDS011;2961;47.702;9.410;2023-09-08T02:14:30;8.27;;;6.40;;
5869;SDS011;2961;47.702;9.410;2023-09-08T02:16:58;7.17;;;6.47;;
5869;SDS011;2961;47.702;9.410;2023-09-08T02:19:25;8.80;;;7.13;;
5869;SDS011;2961;47.702;9.410;2023-09-08T02:21:52;12.50;;;7.87;;
5869;SDS011;2961;47.702;9.410;2023-09-08T02:24:18;10.00;;;7.90;;
5869;SDS011;2961;47.702;9.410;2023-09-08T02:26:45;8.57;;;7.50;;
5869;SDS011;2961;47.702;9.410;2023-09-08T02:29:12;8.83;;;7.00;;
5869;SDS011;2961;47.702;9.410;2023-09-08T02:31:39;8.30;;;7.50;;
5869;SDS011;2961;47.702;9.410;2023-09-08T02:34:07;7.40;;;6.67;;
5869;SDS011;2961;47.702;9.410;2023-09-08T02:36:34;11.27;;;7.50;;
5869;SDS011;2961;47.702;9.410;2023-09-08T02:39:01;9.33;;;6.77;;
5869;SDS011;2961;47.702;9.410;2023-09-08T02:41:28;7.73;;;7.03;;
5869;SDS011;2961;47.702;9.410;2023-09-08T02:43:54;8.83;;;8.03;;
5869;SDS011;2961;47.702;9.410;2023-09-08T02:46:21;11.23;;;7.60;;
5869;SDS011;2961;47.702;9.410;2023-09-08T02:48:48;8.40;;;7.60;;
5869;SDS011;2961;47.702;9.410;2023-09-08T02:51:16;10.20;;;8.13;;
5869;SDS011;2961;47.702;9.410;2023-09-08T02:53:43;7.70;;;6.90;;
5869;SDS011;2961;47.702;9.410;2023-09-08T02:56:09;7.90;;;7.27;;
5869;SDS011;2961;47.702;9.410;2023-09-08T02:58:36;11.37;;;8.30;;
5869;SDS011;2961;47.702;9.410;2023-09-08T03:01:09;9.90;;;8.03;;
5869;SDS011;2961;47.702;9.410;2023-09-08T03:03:38;9.20;;;8.30;;
5869;SDS011;2961;47.702;9.410;2023-09-08T03:06:05;8.13;;;7.33;;
5869;SDS011;2961;47.702;9.410;2023-09-08T03:08:33;10.03;;;8.63;;
5869;SDS011;2961;47.702;9.410;2023-09-08T03:11:02;8.87;;;7.97;;
5869;SDS011;2961;47.702;9.410;2023-09-08T03:13:29;9.37;;;8.47;;
5869;SDS011;2961;47.702;9.410;2023-09-08T03:15:56;13.10;;;7.70;;
5869;SDS011;2961;47.702;9.410;2023-09-08T03:18:23;10.80;;;8.40;;
5869;SDS011;2961;47.702;9.410;2023-09-08T03:20:49;9.07;;;7.27;;
5869;SDS011;2961;47.702;9.410;2023-09-08T03:23:17;10.10;;;7.33;;
5869;SDS011;2961;47.702;9.410;2023-09-08T03:25:45;9.13;;;8.33;;
5869;SDS011;2961;47.702;9.410;2023-09-08T03:28:12;9.37;;;7.77;;
5869;SDS011;2961;47.702;9.410;2023-09-08T03:30:38;9.57;;;8.57;;
5869;SDS011;2961;47.702;9.410;2023-09-08T03:33:05;10.73;;;8.57;;
5869;SDS011;2961;47.702;9.410;2023-09-08T03:35:32;8.00;;;7.30;;
5869;SDS011;2961;47.702;9.410;2023-09-08T03:37:59;8.83;;;8.03;;
5869;SDS011;2961;47.702;9.410;2023-09-08T03:40:25;11.50;;;8.50;;
5869;SDS011;2961;47.702;9.410;2023-09-08T03:42:54;10.17;;;8.07;;
5869;SDS011;2961;47.702;9.410;2023-09-08T03:45:20;9.43;;;8.50;;
5869;SDS011;2961;47.702;9.410;2023-09-08T03:47:47;10.87;;;8.70;;
5869;SDS011;2961;47.702;9.410;2023-09-08T03:50:14;8.97;;;8.07;;
5869;SDS011;2961;47.702;9.410;2023-09-08T03:52:41;9.37;;;8.30;;
5869;SDS011;2961;47.702;9.410;2023-09-08T03:55:08;10.10;;;9.07;;
5869;SDS011;2961;47.702;9.410;2023-09-08T03:57:34;10.37;;;7.77;;
5869;SDS011;2961;47.702;9.410;2023-09-08T04:00:03;10.93;;;7.20;;
5869;SDS011;2961;47.702;9.410;2023-09-08T04:02:31;9.00;;;8.10;;
5869;SDS011;2961;47.702;9.410;2023-09-08T04:04:58;10.27;;;7.67;;
5869;SDS011;2961;47.702;9.410;2023-09-08T04:07:25;9.50;;;8.50;;
5869;SDS011;2961;47.702;9.410;2023-09-08T04:09:51;9.03;;;8.10;;
5869;SDS011;2961;47.702;9.410;2023-09-08T04:12:18;9.47;;;8.47;;
5869;SDS011;2961;47.702;9.410;2023-09-08T04:14:45;9.70;;;8.70;;
5869;SDS011;2961;47.702;9.410;2023-09-08T04:17:13;10.03;;;8.87;;
5869;SDS011;2961;47.702;9.410;2023-09-08T04:19:40;9.57;;;8.20;;
5869;SDS011;2961;47.702;9.410;2023-09-08T04:22:06;11.43;;;8.80;;
5869;SDS011;2961;47.702;9.410;2023-09-08T04:24:34;9.23;;;8.23;;
5869;SDS011;2961;47.702;9.410;2023-09-08T04:27:02;13.87;;;8.77;;
5869;SDS011;2961;47.702;9.410;2023-09-08T04:29:29;11.43;;;9.07;;
5869;SDS011;2961;47.702;9.410;2023-09-08T04:31:56;10.87;;;9.70;;
5869;SDS011;2961;47.702;9.410;2023-09-08T04:34:24;9.23;;;8.33;;
5869;SDS011;2961;47.702;9.410;2023-09-08T04:36:50;9.30;;;8.40;;
5869;SDS011;2961;47.702;9.410;2023-09-08T04:39:17;10.37;;;9.37;;
5869;SDS011;2961;47.702;9.410;2023-09-08T04:41:44;13.97;;;9.20;;
5869;SDS011;2961;47.702;9.410;2023-09-08T04:44:11;10.70;;;9.70;;
5869;SDS011;2961;47.702;9.410;2023-09-08T04:46:37;11.37;;;10.30;;
5869;SDS011;2961;47.702;9.410;2023-09-08T04:49:04;10.17;;;9.20;;
5869;SDS011;2961;47.702;9.410;2023-09-08T04:51:32;11.93;;;10.63;;
5869;SDS011;2961;47.702;9.410;2023-09-08T04:53:59;10.17;;;9.17;;
5869;SDS011;2961;47.702;9.410;2023-09-08T04:56:26;12.53;;;9.13;;
5869;SDS011;2961;47.702;9.410;2023-09-08T04:58:55;10.80;;;9.10;;
5869;SDS011;2961;47.702;9.410;2023-09-08T05:01:23;12.90;;;9.50;;
5869;SDS011;2961;47.702;9.410;2023-09-08T05:03:50;13.07;;;9.70;;
5869;SDS011;2961;47.702;9.410;2023-09-08T05:06:16;11.13;;;9.93;;
5869;SDS011;2961;47.702;9.410;2023-09-08T05:08:45;10.47;;;9.33;;
5869;SDS011;2961;47.702;9.410;2023-09-08T05:11:11;12.33;;;9.57;;
5869;SDS011;2961;47.702;9.410;2023-09-08T05:13:38;10.00;;;8.67;;
5869;SDS011;2961;47.702;9.410;2023-09-08T05:16:05;10.20;;;9.20;;
5869;SDS011;2961;47.702;9.410;2023-09-08T05:18:37;13.27;;;9.10;;
5869;SDS011;2961;47.702;9.410;2023-09-08T05:21:04;12.10;;;8.60;;
5869;SDS011;2961;47.702;9.410;2023-09-08T05:23:31;11.70;;;10.50;;
5869;SDS011;2961;47.702;9.410;2023-09-08T05:26:00;10.60;;;9.30;;
5869;SDS011;2961;47.702;9.410;2023-09-08T05:28:27;16.27;;;10.53;;
5869;SDS011;2961;47.702;9.410;2023-09-08T05:30:54;9.53;;;8.63;;
5869;SDS011;2961;47.702;9.410;2023-09-08T05:33:20;11.70;;;10.13;;
5869;SDS011;2961;47.702;9.410;2023-09-08T05:35:47;9.50;;;8.47;;
5869;SDS011;2961;47.702;9.410;2023-09-08T05:38:14;11.25;;;9.48;;
5869;SDS011;2961;47.702;9.410;2023-09-08T05:40:41;9.73;;;8.50;;
5869;SDS011;2961;47.702;9.410;2023-09-08T05:43:09;15.17;;;9.53;;
5869;SDS011;2961;47.702;9.410;2023-09-08T05:45:36;14.10;;;9.87;;
5869;SDS011;2961;47.702;9.410;2023-09-08T05:48:03;10.43;;;8.70;;
5869;SDS011;2961;47.702;9.410;2023-09-08T05:50:30;11.23;;;9.70;;
5869;SDS011;2961;47.702;9.410;2023-09-08T05:52:57;17.10;;;11.20;;
5869;SDS011;2961;47.702;9.410;2023-09-08T05:55:23;12.30;;;10.30;;
5869;SDS011;2961;47.702;9.410;2023-09-08T05:57:50;14.83;;;9.83;;
5869;SDS011;2961;47.702;9.410;2023-09-08T06:00:18;15.70;;;10.83;;
5869;SDS011;2961;47.702;9.410;2023-09-08T06:02:45;16.10;;;12.97;;
5869;SDS011;2961;47.702;9.410;2023-09-08T06:05:12;13.17;;;11.17;;
5869;SDS011;2961;47.702;9.410;2023-09-08T06:07:39;16.73;;;11.47;;
5869;SDS011;2961;47.702;9.410;2023-09-08T06:10:06;14.00;;;10.93;;
5869;SDS011;2961;47.702;9.410;2023-09-08T06:12:33;15.50;;;10.63;;
5869;SDS011;2961;47.702;9.410;2023-09-08T06:15:01;11.90;;;10.40;;
5869;SDS011;2961;47.702;9.410;2023-09-08T06:17:30;13.33;;;11.30;;
5869;SDS011;2961;47.702;9.410;2023-09-08T06:19:57;13.20;;;10.43;;
5869;SDS011;2961;47.702;9.410;2023-09-08T06:22:24;15.77;;;12.13;;
5869;SDS011;2961;47.702;9.410;2023-09-08T06:24:50;13.83;;;10.80;;
5869;SDS011;2961;47.702;9.410;2023-09-08T06:27:17;13.43;;;12.02;;
5869;SDS011;2961;47.702;9.410;2023-09-08T06:29:44;14.97;;;11.30;;
5869;SDS011;2961;47.702;9.410;2023-09-08T06:32:11;12.13;;;10.77;;
5869;SDS011;2961;47.702;9.410;2023-09-08T06:34:39;12.53;;;10.20;;
5869;SDS011;2961;47.702;9.410;2023-09-08T06:37:06;14.63;;;10.30;;
5869;SDS011;2961;47.702;9.410;2023-09-08T06:39:33;10.67;;;9.53;;
5869;SDS011;2961;47.702;9.410;2023-09-08T06:42:00;11.10;;;9.57;;
5869;SDS011;2961;47.702;9.410;2023-09-08T06:44:27;14.03;;;10.80;;
5869;SDS011;2961;47.702;9.410;2023-09-08T06:46:53;11.47;;;10.37;;
5869;SDS011;2961;47.702;9.410;2023-09-08T06:49:20;11.70;;;10.50;;
5869;SDS011;2961;47.702;9.410;2023-09-08T06:51:48;12.70;;;10.10;;
5869;SDS011;2961;47.702;9.410;2023-09-08T06:54:15;11.87;;;10.57;;
5869;SDS011;2961;47.702;9.410;2023-09-08T06:56:42;13.10;;;10.30;;
5869;SDS011;2961;47.702;9.410;2023-09-08T06:59:09;12.47;;;10.10;;
5869;SDS011;2961;47.702;9.410;2023-09-08T07:01:36;13.20;;;10.20;;
5869;SDS011;2961;47.702;9.410;2023-09-08T07:04:03;13.77;;;9.33;;
5869;SDS011;2961;47.702;9.410;2023-09-08T07:06:30;10.00;;;9.10;;
5869;SDS011;2961;47.702;9.410;2023-09-08T07:08:58;9.60;;;8.40;;
5869;SDS011;2961;47.702;9.410;2023-09-08T07:11:24;9.43;;;7.20;;
5869;SDS011;2961;47.702;9.410;2023-09-08T07:13:51;11.40;;;10.07;;
5869;SDS011;2961;47.702;9.410;2023-09-08T07:16:18;8.87;;;7.97;;
5869;SDS011;2961;47.702;9.410;2023-09-08T07:18:45;8.73;;;7.83;;
5869;SDS011;2961;47.702;9.410;2023-09-08T07:21:11;11.53;;;7.00;;
5869;SDS011;2961;47.702;9.410;2023-09-08T07:23:38;8.67;;;6.80;;
5869;SDS011;2961;47.702;9.410;2023-09-08T07:26:06;8.37;;;7.57;;
5869;SDS011;2961;47.702;9.410;2023-09-08T07:28:33;7.93;;;7.33;;
5869;SDS011;2961;47.702;9.410;2023-09-08T07:31:00;9.50;;;8.60;;
5869;SDS011;2961;47.702;9.410;2023-09-08T07:33:28;9.60;;;7.10;;
5869;SDS011;2961;47.702;9.410;2023-09-08T07:35:55;12.23;;;6.27;;
5869;SDS011;2961;47.702;9.410;2023-09-08T07:38:21;8.00;;;7.20;;
5869;SDS011;2961;47.702;9.410;2023-09-08T07:40:50;7.80;;;7.03;;
5869;SDS011;2961;47.702;9.410;2023-09-08T07:43:18;8.93;;;8.10;;
5869;SDS011;2961;47.702;9.410;2023-09-08T07:45:45;8.90;;;6.73;;
5869;SDS011;2961;47.702;9.410;2023-09-08T07:48:11;7.93;;;7.23;;
5869;SDS011;2961;47.702;9.410;2023-09-08T07:50:38;7.87;;;6.97;;
5869;SDS011;2961;47.702;9.410;2023-09-08T07:53:05;10.50;;;6.70;;
5869;SDS011;2961;47.702;9.410;2023-09-08T07:55:32;6.97;;;6.37;;
5869;SDS011;2961;47.702;9.410;2023-09-08T07:58:00;8.20;;;7.40;;
5869;SDS011;2961;47.702;9.410;2023-09-08T08:00:30;7.67;;;6.90;;
5869;SDS011;2961;47.702;9.410;2023-09-08T08:02:57;8.23;;;7.22;;
5869;SDS011;2961;47.702;9.410;2023-09-08T08:05:25;7.87;;;7.10;;
5869;SDS011;2961;47.702;9.410;2023-09-08T08:07:52;8.60;;;7.80;;
5869;SDS011;2961;47.702;9.410;2023-09-08T08:10:18;8.90;;;7.57;;
5869;SDS011;2961;47.702;9.410;2023-09-08T08:12:45;9.98;;;8.02;;
5869;SDS011;2961;47.702;9.410;2023-09-08T08:15:12;8.68;;;7.30;;
5869;SDS011;2961;47.702;9.410;2023-09-08T08:17:40;13.20;;;8.63;;
5869;SDS011;2961;47.702;9.410;2023-09-08T08:20:08;8.93;;;7.70;;
5869;SDS011;2961;47.702;9.410;2023-09-08T08:22:42;12.10;;;8.67;;
5869;SDS011;2961;47.702;9.410;2023-09-08T08:25:09;10.03;;;8.17;;
5869;SDS011;2961;47.702;9.410;2023-09-08T08:27:37;7.87;;;6.97;;
5869;SDS011;2961;47.702;9.410;2023-09-08T08:30:04;8.30;;;7.37;;
5869;SDS011;2961;47.702;9.410;2023-09-08T08:32:32;11.10;;;7.43;;
5869;SDS011;2961;47.702;9.410;2023-09-08T08:35:01;10.00;;;8.60;;
5869;SDS011;2961;47.702;9.410;2023-09-08T08:37:29;8.60;;;7.70;;
5869;SDS011;2961;47.702;9.410;2023-09-08T08:39:56;9.80;;;8.80;;
5869;SDS011;2961;47.702;9.410;2023-09-08T08:42:23;13.07;;;8.90;;
5869;SDS011;2961;47.702;9.410;2023-09-08T08:44:56;10.55;;;9.55;;
5869;SDS011;2961;47.702;9.410;2023-09-08T08:47:24;10.13;;;9.20;;
5869;SDS011;2961;47.702;9.410;2023-09-08T08:49:51;8.57;;;7.70;;
5869;SDS011;2961;47.702;9.410;2023-09-08T08:52:22;9.03;;;8.13;;
5869;SDS011;2961;47.702;9.410;2023-09-08T08:54:49;8.30;;;7.50;;
5869;SDS011;2961;47.702;9.410;2023-09-08T08:57:16;9.23;;;8.07;;
5869;SDS011;2961;47.702;9.410;2023-09-08T08:59:43;9.03;;;7.70;;
5869;SDS011;2961;47.702;9.410;2023-09-08T09:02:11;9.10;;;8.17;;
5869;SDS011;2961;47.702;9.410;2023-09-08T09:04:39;9.23;;;8.27;;
5869;SDS011;2961;47.702;9.410;2023-09-08T09:07:07;8.93;;;8.03;;
5869;SDS011;2961;47.702;9.410;2023-09-08T09:09:36;11.80;;;8.87;;
5869;SDS011;2961;47.702;9.410;2023-09-08T09:12:04;10.10;;;8.77;;
5869;SDS011;2961;47.702;9.410;2023-09-08T09:14:32;15.83;;;9.00;;
5869;SDS011;2961;47.702;9.410;2023-09-08T09:17:00;14.37;;;9.20;;
5869;SDS011;2961;47.702;9.410;2023-09-08T09:19:29;10.20;;;8.73;;
5869;SDS011;2961;47.702;9.410;2023-09-08T09:21:58;9.47;;;7.70;;
5869;SDS011;2961;47.702;9.410;2023-09-08T09:24:29;8.80;;;7.50;;
5869;SDS011;2961;47.702;9.410;2023-09-08T09:26:59;11.23;;;8.40;;
5869;SDS011;2961;47.702;9.410;2023-09-08T09:29:26;9.07;;;8.10;;
5869;SDS011;2961;47.702;9.410;2023-09-08T09:31:54;9.83;;;8.17;;
5869;SDS011;2961;47.702;9.410;2023-09-08T09:34:22;13.17;;;10.70;;
5869;SDS011;2961;47.702;9.410;2023-09-08T09:36:50;10.97;;;8.10;;
5869;SDS011;2961;47.702;9.410;2023-09-08T09:39:18;10.90;;;9.50;;
5869;SDS011;2961;47.702;9.410;2023-09-08T09:41:45;10.13;;;9.13;;
5869;SDS011;2961;47.702;9.410;2023-09-08T09:44:14;8.37;;;7.57;;
5869;SDS011;2961;47.702;9.410;2023-09-08T09:46:45;9.03;;;8.13;;
5869;SDS011;2961;47.702;9.410;2023-09-08T09:49:12;10.40;;;8.37;;
5869;SDS011;2961;47.702;9.410;2023-09-08T09:51:40;8.90;;;8.00;;
5869;SDS011;2961;47.702;9.410;2023-09-08T09:54:08;9.87;;;8.13;;
5869;SDS011;2961;47.702;9.410;2023-09-08T09:56:36;9.80;;;7.77;;
5869;SDS011;2961;47.702;9.410;2023-09-08T09:59:04;13.33;;;8.97;;
5869;SDS011;2961;47.702;9.410;2023-09-08T10:01:34;13.13;;;9.17;;
5869;SDS011;2961;47.702;9.410;2023-09-08T10:04:02;10.53;;;9.20;;
5869;SDS011;2961;47.702;9.410;2023-09-08T10:06:30;10.53;;;9.43;;
5869;SDS011;2961;47.702;9.410;2023-09-08T10:08:58;9.73;;;8.73;;
5869;SDS011;2961;47.702;9.410;2023-09-08T10:11:26;12.43;;;10.30;;
5869;SDS011;2961;47.702;9.410;2023-09-08T10:13:57;10.17;;;9.27;;
5869;SDS011;2961;47.702;9.410;2023-09-08T10:16:26;8.67;;;7.87;;
5869;SDS011;2961;47.702;9.410;2023-09-08T10:18:55;13.10;;;10.10;;
5869;SDS011;2961;47.702;9.410;2023-09-08T10:21:25;11.03;;;8.77;;
5869;SDS011;2961;47.702;9.410;2023-09-08T10:23:54;9.00;;;8.20;;
5869;SDS011;2961;47.702;9.410;2023-09-08T10:26:26;10.00;;;8.77;;
5869;SDS011;2961;47.702;9.410;2023-09-08T10:28:53;12.10;;;8.93;;
5869;SDS011;2961;47.702;9.410;2023-09-08T10:31:22;10.00;;;9.00;;
5869;SDS011;2961;47.702;9.410;2023-09-08T10:33:51;8.67;;;7.87;;
5869;SDS011;2961;47.702;9.410;2023-09-08T10:36:21;11.60;;;9.20;;
5869;SDS011;2961;47.702;9.410;2023-09-08T10:38:48;9.60;;;8.63;;
5869;SDS011;2961;47.702;9.410;2023-09-08T10:41:26;9.33;;;8.50;;
5869;SDS011;2961;47.702;9.410;2023-09-08T10:43:57;8.13;;;7.43;;
5869;SDS011;2961;47.702;9.410;2023-09-08T10:46:27;9.63;;;8.73;;
5869;SDS011;2961;47.702;9.410;2023-09-08T10:49:00;13.27;;;8.90;;
5869;SDS011;2961;47.702;9.410;2023-09-08T10:51:29;11.67;;;8.70;;
5869;SDS011;2961;47.702;9.410;2023-09-08T10:53:57;13.70;;;8.13;;
5869;SDS011;2961;47.702;9.410;2023-09-08T10:56:29;16.10;;;9.87;;
5869;SDS011;2961;47.702;9.410;2023-09-08T10:59:14;9.70;;;8.70;;
5869;SDS011;2961;47.702;9.410;2023-09-08T11:01:41;10.20;;;9.13;;
5869;SDS011;2961;47.702;9.410;2023-09-08T11:04:08;15.33;;;10.57;;
5869;SDS011;2961;47.702;9.410;2023-09-08T11:06:39;10.87;;;8.33;;
5869;SDS011;2961;47.702;9.410;2023-09-08T11:09:06;14.17;;;10.00;;
5869;SDS011;2961;47.702;9.410;2023-09-08T11:11:33;10.13;;;9.03;;
5869;SDS011;2961;47.702;9.410;2023-09-08T11:14:01;10.30;;;9.23;;
5869;SDS011;2961;47.702;9.410;2023-09-08T11:16:28;11.27;;;9.03;;
5869;SDS011;2961;47.702;9.410;2023-09-08T11:18:58;10.83;;;8.60;;
5869;SDS011;2961;47.702;9.410;2023-09-08T11:21:26;9.13;;;8.23;;
5869;SDS011;2961;47.702;9.410;2023-09-08T11:24:00;9.13;;;8.13;;
5869;SDS011;2961;47.702;9.410;2023-09-08T11:26:29;9.00;;;8.17;;
5869;SDS011;2961;47.702;9.410;2023-09-08T11:28:59;9.00;;;8.10;;
5869;SDS011;2961;47.702;9.410;2023-09-08T11:31:26;9.53;;;7.80;;
5869;SDS011;2961;47.702;9.410;2023-09-08T11:33:54;13.13;;;8.40;;
5869;SDS011;2961;47.702;9.410;2023-09-08T11:36:21;20.13;;;7.90;;
5869;SDS011;2961;47.702;9.410;2023-09-08T11:38:48;10.50;;;9.30;;
5869;SDS011;2961;47.702;9.410;2023-09-08T11:41:16;9.37;;;8.47;;
5869;SDS011;2961;47.702;9.410;2023-09-08T11:43:47;12.53;;;8.97;;
5869;SDS011;2961;47.702;9.410;2023-09-08T11:46:15;10.10;;;9.00;;
5869;SDS011;2961;47.702;9.410;2023-09-08T11:48:43;9.47;;;8.67;;
5869;SDS011;2961;47.702;9.410;2023-09-08T11:51:10;8.37;;;7.57;;
5869;SDS011;2961;47.702;9.410;2023-09-08T11:53:37;9.10;;;8.17;;
5869;SDS011;2961;47.702;9.410;2023-09-08T11:56:04;9.10;;;8.17;;
5869;SDS011;2961;47.702;9.410;2023-09-08T11:58:33;13.37;;;10.13;;
5869;SDS011;2961;47.702;9.410;2023-09-08T12:01:00;10.53;;;9.30;;
5869;SDS011;2961;47.702;9.410;2023-09-08T12:03:28;12.73;;;8.53;;
5869;SDS011;2961;47.702;9.410;2023-09-08T12:05:55;10.50;;;9.40;;
5869;SDS011;2961;47.702;9.410;2023-09-08T12:08:24;9.30;;;8.33;;
5869;SDS011;2961;47.702;9.410;2023-09-08T12:10:53;12.27;;;8.80;;
5869;SDS011;2961;47.702;9.410;2023-09-08T12:13:20;8.50;;;7.70;;
5869;SDS011;2961;47.702;9.410;2023-09-08T12:15:50;8.70;;;7.67;;
5869;SDS011;2961;47.702;9.410;2023-09-08T12:18:17;10.23;;;8.80;;
5869;SDS011;2961;47.702;9.410;2023-09-08T12:20:44;10.03;;;8.60;;
5869;SDS011;2961;47.702;9.410;2023-09-08T12:23:17;11.67;;;9.07;;
5869;SDS011;2961;47.702;9.410;2023-09-08T12:25:45;18.27;;;8.93;;
5869;SDS011;2961;47.702;9.410;2023-09-08T12:28:12;10.10;;;9.10;;
5869;SDS011;2961;47.702;9.410;2023-09-08T12:30:39;13.53;;;8.40;;
5869;SDS011;2961;47.702;9.410;2023-09-08T12:33:08;12.20;;;8.23;;
5869;SDS011;2961;47.702;9.410;2023-09-08T12:35:36;8.93;;;8.00;;
5869;SDS011;2961;47.702;9.410;2023-09-08T12:38:03;11.47;;;8.00;;
5869;SDS011;2961;47.702;9.410;2023-09-08T12:40:33;8.73;;;7.93;;
5869;SDS011;2961;47.702;9.410;2023-09-08T12:43:00;11.70;;;8.93;;
5869;SDS011;2961;47.702;9.410;2023-09-08T12:45:28;9.73;;;8.93;;
5869;SDS011;2961;47.702;9.410;2023-09-08T12:47:57;10.10;;;8.73;;
5869;SDS011;2961;47.702;9.410;2023-09-08T12:50:28;9.67;;;8.67;;
5869;SDS011;2961;47.702;9.410;2023-09-08T12:52:55;9.83;;;8.10;;
5869;SDS011;2961;47.702;9.410;2023-09-08T12:55:22;10.30;;;8.97;;
5869;SDS011;2961;47.702;9.410;2023-09-08T12:57:49;15.90;;;8.37;;
5869;SDS011;2961;47.702;9.410;2023-09-08T13:00:19;8.60;;;7.90;;
5869;SDS011;2961;47.702;9.410;2023-09-08T13:02:47;8.63;;;7.30;;
5869;SDS011;2961;47.702;9.410;2023-09-08T13:05:14;10.15;;;9.13;;
5869;SDS011;2961;47.702;9.410;2023-09-08T13:07:42;9.03;;;8.23;;
5869;SDS011;2961;47.702;9.410;2023-09-08T13:10:09;13.40;;;8.67;;
5869;SDS011;2961;47.702;9.410;2023-09-08T13:12:36;9.90;;;8.67;;
5869;SDS011;2961;47.702;9.410;2023-09-08T13:15:03;9.80;;;8.80;;
5869;SDS011;2961;47.702;9.410;2023-09-08T13:17:31;9.70;;;8.43;;
5869;SDS011;2961;47.702;9.410;2023-09-08T13:19:57;10.20;;;8.43;;
5869;SDS011;2961;47.702;9.410;2023-09-08T13:22:24;9.77;;;8.43;;
5869;SDS011;2961;47.702;9.410;2023-09-08T13:24:52;9.67;;;8.77;;
5869;SDS011;2961;47.702;9.410;2023-09-08T13:27:20;9.30;;;8.50;;
5869;SDS011;2961;47.702;9.410;2023-09-08T13:29:46;8.63;;;7.90;;
5869;SDS011;2961;47.702;9.410;2023-09-08T13:32:13;9.80;;;8.63;;
5869;SDS011;2961;47.702;9.410;2023-09-08T13:34:40;9.27;;;8.30;;
5869;SDS011;2961;47.702;9.410;2023-09-08T13:37:08;17.40;;;9.90;;
5869;SDS011;2961;47.702;9.410;2023-09-08T13:39:36;8.97;;;8.17;;
5869;SDS011;2961;47.702;9.410;2023-09-08T13:42:04;10.10;;;8.70;;
5869;SDS011;2961;47.702;9.410;2023-09-08T13:44:31;9.83;;;8.83;;
5869;SDS011;2961;47.702;9.410;2023-09-08T13:46:58;10.00;;;8.97;;
5869;SDS011;2961;47.702;9.410;2023-09-08T13:49:25;9.00;;;8.10;;
5869;SDS011;2961;47.702;9.410;2023-09-08T13:51:52;8.90;;;8.10;;
5869;SDS011;2961;47.702;9.410;2023-09-08T13:54:19;8.50;;;7.67;;
5869;SDS011;2961;47.702;9.410;2023-09-08T13:56:56;13.43;;;8.90;;
5869;SDS011;2961;47.702;9.410;2023-09-08T13:59:25;12.10;;;8.27;;
5869;SDS011;2961;47.702;9.410;2023-09-08T14:01:53;9.40;;;8.50;;
5869;SDS011;2961;47.702;9.410;2023-09-08T14:04:20;9.67;;;8.30;;
5869;SDS011;2961;47.702;9.410;2023-09-08T14:06:47;9.17;;;6.87;;
5869;SDS011;2961;47.702;9.410;2023-09-08T14:09:14;9.90;;;8.50;;
5869;SDS011;2961;47.702;9.410;2023-09-08T14:11:41;8.57;;;7.53;;
5869;SDS011;2961;47.702;9.410;2023-09-08T14:14:08;9.60;;;8.37;;
5869;SDS011;2961;47.702;9.410;2023-09-08T14:16:36;9.40;;;8.40;;
5869;SDS011;2961;47.702;9.410;2023-09-08T14:19:03;8.67;;;7.80;;
5869;SDS011;2961;47.702;9.410;2023-09-08T14:21:30;9.57;;;8.60;;
5869;SDS011;2961;47.702;9.410;2023-09-08T14:23:57;7.57;;;6.97;;
5869;SDS011;2961;47.702;9.410;2023-09-08T14:26:24;7.73;;;6.80;;
5869;SDS011;2961;47.702;9.410;2023-09-08T14:28:51;8.00;;;7.30;;
5869;SDS011;2961;47.702;9.410;2023-09-08T14:31:18;9.40;;;8.10;;
5869;SDS011;2961;47.702;9.410;2023-09-08T14:33:46;7.97;;;7.17;;
5869;SDS011;2961;47.702;9.410;2023-09-08T14:36:16;9.63;;;7.80;;
5869;SDS011;2961;47.702;9.410;2023-09-08T14:38:43;8.43;;;7.60;;
5869;SDS011;2961;47.702;9.410;2023-09-08T14:41:10;7.50;;;6.90;;
5869;SDS011;2961;47.702;9.410;2023-09-08T14:43:37;8.47;;;7.40;;
5869;SDS011;2961;47.702;9.410;2023-09-08T14:46:04;7.50;;;6.90;;
5869;SDS011;2961;47.702;9.410;2023-09-08T14:48:30;10.13;;;7.63;;
5869;SDS011;2961;47.702;9.410;2023-09-08T14:50:59;8.10;;;7.30;;
5869;SDS011;2961;47.702;9.410;2023-09-08T14:53:26;8.07;;;7.30;;
5869;SDS011;2961;47.702;9.410;2023-09-08T14:55:54;10.07;;;7.87;;
5869;SDS011;2961;47.702;9.410;2023-09-08T14:58:22;7.87;;;7.07;;
5869;SDS011;2961;47.702;9.410;2023-09-08T15:00:49;11.80;;;7.90;;
5869;SDS011;2961;47.702;9.410;2023-09-08T15:03:16;8.00;;;7.30;;
5869;SDS011;2961;47.702;9.410;2023-09-08T15:05:44;7.97;;;7.27;;
5869;SDS011;2961;47.702;9.410;2023-09-08T15:08:13;7.77;;;7.17;;
5869;SDS011;2961;47.702;9.410;2023-09-08T15:10:39;9.03;;;6.67;;
5869;SDS011;2961;47.702;9.410;2023-09-08T15:13:06;8.43;;;7.20;;